Skip Navigation Links
NOAA logo - Click to go to the NOAA homepage
NOAA's National Weather Service
Alaska Aviation Weather Unit
  NWS logo - Click to go to the NWS homepage
Left Navbar Graphic     19 AKDT = 03 GMT

   
NOAA is celebrating 200 years of science, service, and stewardship. Visit the NOAA 200th celebration Web site to learn more.
USA.gov is the U.S. Government's official Web portal to all Federal, state and local government Web resources and services.
Facebook
NWS on Facebook

Important Change Regarding the AAWU Web Presence

 

Over the last several months, the AAWU has been working to navigate its webpages to a nationally supported server. Security, as well as other needs, have necessitated the change.  We have been given an extension for the site changeover while we diligently work at addressing feedback received. As of July 14, 2017, aawu.arh.noaa.gov will be discontinued. The new AAWU web address is weather.gov/aawu. It is now live and will run in-parallel with the old site until it is discontinued on July 14, 2017. Please continue to send any feedback or questions regarding the new webpages to nws.ar.aawu.webauthors@noaa.gov.  Thank you for your patience during this time of transition.
AAWU Home :: Display TAF Add Bookmark
METAR PAKK 282116Z AUTO 16008KT 10SM FEW046 BKN055 OVC065 13/02
 A2972 RMK AO1=

METAR PAKK 282136Z AUTO 17008KT 10SM SCT037 BKN046 OVC055 13/02 A2973
     RMK AO1=

METAR PAKK 282156Z AUTO 17010KT 150V210 10SM FEW025 BKN034 OVC040 13/01
     A2973 RMK AO1=

METAR PAKK 282216Z AUTO 16013KT 10SM FEW023 SCT031 BKN042 13/02 A2973
     RMK AO1=

METAR PAKK 282236Z AUTO 17011G17KT 10SM FEW041 BKN048 OVC085 14/01 A2974
     RMK AO1=

METAR PAKK 282256Z AUTO 17010KT 10SM BKN048 BKN060 OVC070 14/02 A2974
     RMK AO1=

METAR PAKK 282316Z AUTO 18007KT 10SM FEW037 SCT043 BKN048 14/01 A2974
     RMK AO1=

METAR PAKK 282336Z AUTO 18010G15KT 9SM FEW020 SCT029 OVC048 12/02
 A2975 RMK AO1 P0001=

METAR PAKK 282356Z AUTO 19012G16KT 7SM FEW029 BKN038 OVC047 12/01 A2975
     RMK AO1 P0009=

METAR PAKK 290016Z AUTO 20009KT 8SM FEW020 SCT035 BKN047 12/02 A2976
 RMK AO1 P0002=

METAR PAKK 290036Z AUTO 21007KT 10SM SCT034 BKN047 OVC060 12/03 A2976
     RMK AO1 P0002=

METAR PAKK 290056Z AUTO 19009G19KT 6SM FEW016 SCT026 BKN034 12/02 A2976
     RMK AO1 P0002=

METAR PAKK 290116Z AUTO 18011KT 10SM FEW022 SCT030 BKN038 12/02 A2976
     RMK AO1=

METAR PAKK 290136Z AUTO 18009KT 10SM FEW030 SCT050 BKN060 12/02 A2977
     RMK AO1=

METAR PAKK 290156Z AUTO 17009KT 10SM BKN060 OVC070 13/02 A2977 RMK
 AO1=

METAR PAKK 290216Z AUTO 16012G16KT 10SM FEW040 OVC060 12/02 A2977 RMK
     AO1=

METAR PAKK 290236Z AUTO 18008KT 10SM FEW035 BKN043 OVC050 12/01 A2977
     RMK AO1 P0001=

METAR PAKK 290256Z AUTO 18007KT 10SM FEW036 FEW042 OVC060 12/02 A2977
     RMK AO1 P0001 60003 52007=

METAR PAKK 290316Z AUTO 17009KT 9SM FEW015 SCT021 BKN041 12/02 A2977 RMK
     AO1 P0001=

METAR PAKK 290336Z AUTO 18009KT 7SM FEW018 BKN034 OVC049 11/01 A2978 RMK
     AO1 P0001=


NOAA's National Weather Service
Alaska Aviation Weather Unit
6930 Sand Lake Road
Anchorage, AK 99502-1845
Disclaimer
Credits
Glossary
Privacy Policy
About Us
Career Opportunities
Contact AAWU Internet Services Site last modified: April, 17th 2012